Météo Nord-Pas-de-Calais   La météo au plus près de chez vous

Station météorologique

Observations météo à Prat De Bouc (15025)

15025001 1405 m Dernier relevé à 05:00
11.5°C
Humidité 75 % Vent 30.2 km/h

Journée consultée

Lundi 31 Août 2026

Synthèse de la journée

Périodes de référence en UTC

Température maximale

20.1°C

à 18:00

06h 06h

Température minimale

11.3°C

à 04:54

18h 18h

Rafale maximale

48 km/h

à 02:48

00h 00h

Précipitations

4 mm

Cumul quotidien

06h 06h

Graphiques de la journée

Heure locale Réduire

Données détaillées

Relevés météo

Pas de 6 minutes Afficher les relevés infra-horaires
Relevés météo détaillés à Prat De Bouc pour le Lundi 31 Août 2026
Heure Température °C Point de rosée °C Humidité % Vent moyen (raf.), km/h Précipitations mm
05:00 11.5 °C 6 °C 69 % 23 km/h (39 km/h) 0 mm0 mm
04:54 11.3 °C 6.2 °C 71 % 21 km/h (36 km/h) 0 mm0 mm
04:48 11.5 °C 7 °C 74 % 24 km/h (41 km/h) 0 mm0 mm
04:42 11.5 °C 6.8 °C 73 % 28 km/h (43 km/h) 0 mm0 mm
04:36 11.9 °C 7 °C 72 % 26 km/h (43 km/h) 0 mm0 mm
04:30 11.4 °C 7.5 °C 77 % 22 km/h (33 km/h) 0 mm0 mm
04:24 11.6 °C 7.7 °C 77 % 24 km/h (41 km/h) 0 mm0 mm
04:18 11.4 °C 7.5 °C 77 % 26 km/h (45 km/h) 0 mm0 mm
04:12 11.9 °C 7.8 °C 76 % 32 km/h (45 km/h) 0 mm0 mm
04:06 11.5 °C 7.2 °C 75 % 31 km/h (43 km/h) 0 mm0 mm
04:00 11.5 °C 7.2 °C 75 % 30 km/h (43 km/h) 0 mm0 mm
03:54 11.5 °C 7.8 °C 78 % 29 km/h (43 km/h) 0 mm0 mm
03:48 11.5 °C 8.2 °C 80 % 25 km/h (42 km/h) 0 mm0 mm
03:42 11.8 °C 8.6 °C 81 % 24 km/h (39 km/h) 0 mm0 mm
03:36 11.9 °C 8.9 °C 82 % 22 km/h (39 km/h) 0 mm0 mm
03:30 12 °C 9 °C 82 % 27 km/h (39 km/h) 0 mm0 mm
03:24 12 °C 9 °C 82 % 25 km/h (41 km/h) 0 mm0 mm
03:18 12.2 °C 9.2 °C 82 % 24 km/h (44 km/h) 0 mm0 mm
03:12 12.3 °C 9.5 °C 83 % 22 km/h (32 km/h) 0 mm0 mm
03:06 12.2 °C 9.8 °C 85 % 23 km/h (39 km/h) 0 mm0 mm
03:00 12.2 °C 9.9 °C 86 % 27 km/h (42 km/h) 0 mm4 mm
02:54 12.3 °C 9.8 °C 85 % 26 km/h (48 km/h) 0 mm0 mm
02:48 12.4 °C 9.9 °C 85 % 18 km/h (48 km/h) 0 mm0 mm
02:42 12.5 °C 10 °C 85 % 18 km/h (40 km/h) 0 mm0 mm
02:36 12.4 °C 10.1 °C 86 % 20 km/h (31 km/h) 0 mm0 mm
02:30 12.3 °C 10.2 °C 87 % 22 km/h (36 km/h) 0 mm0 mm
02:24 12.3 °C 10 °C 86 % 18 km/h (31 km/h) 0.2 mm0 mm
02:18 11.8 °C 10 °C 89 % 23 km/h (44 km/h) 2.4 mm0 mm
02:12 12.1 °C 10 °C 87 % 27 km/h (44 km/h) 1 mm0 mm
02:06 12.5 °C 10.2 °C 86 % 18 km/h (32 km/h) 0.4 mm0 mm
02:00 12.9 °C 10.4 °C 85 % 20 km/h (36 km/h) 0 mm0 mm
01:54 13.2 °C 10.4 °C 83 % 19 km/h (36 km/h) 0 mm0 mm
01:48 13.5 °C 10.5 °C 82 % 19 km/h (33 km/h) 0 mm0 mm
01:42 13.6 °C 10.8 °C 83 % 20 km/h (33 km/h) 0 mm0 mm
01:36 13.4 °C 10.9 °C 85 % 15 km/h (30 km/h) 0 mm0 mm
01:30 13.1 °C 10.8 °C 86 % 13 km/h (22 km/h) 0 mm0 mm
01:24 13.6 °C 10.8 °C 83 % 14 km/h (37 km/h) 0 mm0 mm
01:18 13.8 °C 11 °C 83 % 15 km/h (37 km/h) 0 mm0 mm
01:12 13.5 °C 11 °C 85 % 12 km/h (30 km/h) 0 mm0 mm
01:06 13.3 °C 11 °C 86 % 15 km/h (29 km/h) 0 mm0 mm
01:00 13.6 °C 10.9 °C 84 % 21 km/h (30 km/h) 0 mm0 mm
00:54 13.2 °C 11.1 °C 87 % 20 km/h (29 km/h) 0 mm0 mm
00:48 13.4 °C 11.1 °C 86 % 20 km/h (30 km/h) 0 mm0 mm
00:42 13.7 °C 11 °C 84 % 23 km/h (38 km/h) 0 mm0 mm
00:36 13.7 °C 11.4 °C 86 % 22 km/h (37 km/h) 0 mm0 mm
00:30 13.7 °C 11.7 °C 88 % 23 km/h (37 km/h) 0 mm0 mm
00:24 13.8 °C 11.7 °C 87 % 22 km/h (31 km/h) 0 mm0 mm
00:18 13.9 °C 11.8 °C 87 % 25 km/h (37 km/h) 0 mm0 mm
00:12 14 °C 11.9 °C 87 % 30 km/h (41 km/h) 0 mm0 mm
00:06 14 °C 11.9 °C 87 % 32 km/h (43 km/h) 0 mm0 mm
00:00 14.1 °C 11.8 °C 86 % 33 km/h (46 km/h) 0 mm0 mm

Données via Météo-France

Relevés météo à Prat De Bouc

Cette page rassemble les observations de la station de Prat De Bouc : température, humidité, vent, précipitations et pression atmosphérique. Les graphiques facilitent le suivi de la journée, tandis que le tableau donne accès aux mesures horaires et infra-horaires disponibles.

Pour replacer ces mesures dans leur contexte, consultez la climatologie de Prat De Bouc. Retrouvez aussi la carte des observations météo en temps réel.